Aktualne dane pomiarowe

Uwaga, wersja testowa! Automatyczne pobieranie danych za pomocą narzędzi lub skryptów to umożliwiających jest zabronione.

Dane meteo z obszaru Polski uzyskane na podstawie depesz SYNOP pobieranych co godzinę z NWS. Najedź myszką na symbol przedstawiony w tabeli, aby uzyskać informacje co do jego znaczenia. Prosimy pamiętać, że to testowa wersja strony, która jeszcze nie jest ukończona. Stworzono również jest krótki FAQ dotyczący korzystania z tej podstrony Anomalie temperatury w chwili obecnej odniesione są do okresu referencyjnego 1951-2016. Okres ten będzie później zmieniony na 1981-2010. Kliknij ikonę aby pobrać plik CSV. Kliknij ikonę aby wygenerować mapę synoptyczną dla danego terminu.

Wybierz Datę:    

        

Nowy Sącz (12660)

Dane terminowe dla wybranej stacji. Kliknij datę, aby otrzymać dane z tego terminu dla wszystkich stacji.

TemperaturaZachmurzenieWiatrCiśnienieOpadyPogoda
 Data t td wb tx tn tg rh  Nt Nl Cl Cm Ch ws wd g1 g2 wx mslp ppp ch 24h 12h t ww ww w1 w2  
2019-06-28 23:00:00 16.5 10.8 12.9--- 6922.0--2wx--21021.2 986.3 0.0---------
2019-06-28 22:00:00 16.9 11.0 13.2--- 6817.0--2wx--21021.3 986.4 0.4---------
2019-06-28 21:00:00 16.7 10.8 13.0--- 6822.0--1wx---1021.1 986.2 0.5---------
2019-06-28 20:00:00 16.8 10.4 12.8--- 6620.0--1wx--11021.2 986.3 0.9---------
2019-06-28 19:00:00 17.8 10.7 13.4--- 6319.0--2wx--21020.7 986.0 0.6---------
2019-06-28 18:00:00 19.8 10.5 14.2 22.3 16.3- 5530.0--3wx-1031020.2 985.7 0.6- 0.012------
2019-06-28 17:00:00 20.9 10.7 14.8--- 5230.0--3wx---1019.8 985.4 0.3---------
2019-06-28 16:00:00 21.4 11.4 15.3--- 5325.0--3wx-831019.7 985.4 0.1---------
2019-06-28 15:00:00 21.5 10.6 15.0--- 5028.0--3wx101031019.4 985.1 -0.5---------
2019-06-28 14:00:00 21.5 10.6 15.0--- 5027.0--2wx-921019.4 985.1 -0.9---------
2019-06-28 13:00:00 20.4 10.5 14.5--- 5335.0--2wx7921019.7 985.3 -0.6---------
2019-06-28 12:00:00 21.1 11.1 15.0--- 5328.0--3wx8831019.9 985.6 -0.6- 0.06------
2019-06-28 11:00:00 19.6 10.3 14.0--- 5526.0--3wx8831020.5 986.0 -0.1---------
2019-06-28 10:00:00 19.2 10.5 13.9--- 5726.0--3wx-731020.5 985.9 -0.1---------
2019-06-28 09:00:00 17.6 10.9 13.4--- 6540.0--2wx-721021.0 986.2 0.1---------
2019-06-28 08:00:00 17.8 11.8 14.0--- 6840.0--2wx--21020.9 986.1 0.3---------
2019-06-28 07:00:00 17.3 10.9 13.3--- 6635.0--2wx-721020.8 986.0 0.5---------
2019-06-28 06:00:00 16.4 11.1 13.0 23.1 14.6 12 7130.0--2wx--21021.0 986.1 0.9- 0.012----- 14.1
2019-06-28 05:00:00 15.5 11.5 12.9--- 7735.0--2wx--21020.8 985.8 1.0---------
2019-06-28 04:00:00 14.6 11.6 12.6--- 8230.0--2wx--21020.6 985.5 0.8---------
2019-06-28 03:00:00 15.0 11.6 12.7--- 8040.0--2wx--21020.3 985.2 0.6---------
2019-06-28 02:00:00 15.3 11.5 12.8--- 7835.0--2wx--21019.8 984.8 0.0---------
2019-06-28 01:00:00 15.3 11.1 12.6--- 7645.0--1wx---1019.7 984.7 0.2---------
2019-06-28 00:00:00 16.2 10.7 12.7--- 7040.0--1wx-711019.5 984.6 0.5- 0.06------
2019-06-27 23:00:00 17.1 10.7 13.1--- 6635.0--1wx--11019.6 984.8 1.4---------
2019-06-27 22:00:00 17.6 10.0 13.0--- 6140.0--0---01019.2 984.5 1.6---------
2019-06-27 21:00:00 18.4 10.2 13.4--- 5930.0--1wx-711018.7 984.1 1.9---------
2019-06-27 20:00:00 19.6 9.5 13.6--- 5240.0--1wx---1017.8 983.4 1.7---------
2019-06-27 19:00:00 21.2 9.1 14.2--- 4645.0--2wx-721017.1 982.9 1.8---------
2019-06-27 18:00:00 23.2 9.6 15.3 28.9 23.2- 4235.0--2wx-1521016.2 982.2 1.0- 0.012------
2019-06-27 17:00:00 25.1 10.9 16.6--- 4135.0--2wx71221015.4 981.7 0.6---------
2019-06-27 16:00:00 26.3 8.7 16.1--- 3326.0--4wx10--1014.7 981.1 -0.1---------
2019-06-27 15:00:00 27.8 6.5 15.8--- 2630.0--3wx91531014.6 981.2 0.0---------
2019-06-27 14:00:00 28.4 9.6 17.4--- 3126.0--4wx101241014.4 981.1 -0.7---------
2019-06-27 13:00:00 28.7 10.8 18.0--- 3322.0--4wx101541014.5 981.2 -1.4---------
2019-06-27 12:00:00 28.5 12.8 18.9--- 3824.0--6wx151561014.5 981.2 -1.8- 0.06------
2019-06-27 11:00:00 28.2 16.1 20.4--- 4821.0--6wx14--1015.2 981.8 -1.0---------
2019-06-27 10:00:00 27.4 18.4 21.4--- 5814.0--3wx9931016.1 982.6 -0.3---------
2019-06-27 09:00:00 26.8 19.4 21.7--- 6422.0--3wx-931016.6 983.0 0.1---------
2019-06-27 08:00:00 26.6 18.7 21.2--- 6219.0--3wx8831016.4 982.8 -0.1---------
2019-06-27 07:00:00 27.0 19.1 21.6--- 6219.0--2wx7921016.5 982.9 0.1---------
2019-06-27 06:00:00 26.6 18.2 20.9 29.9 22.8 21 6019.0--3wx9931016.5 982.9 -0.1- 0.012----- 14.6
2019-06-27 05:00:00 26.1 19.0 21.2--- 6528.0--1wx--11016.6 982.9 -0.4---------
2019-06-27 04:00:00 23.3 18.6 20.0--- 7520.0--1wx--11016.8 982.8 -0.9---------
2019-06-27 03:00:00 23.7 18.1 19.9--- 7123.0--2wx--21016.9 983.0 -1.2---------
2019-06-27 02:00:00 22.9 18.0 19.5--- 7423.0--2wx--21017.3 983.3 -1.3---------
2019-06-27 01:00:00 24.3 18.0 20.0--- 6827.0--2wx--21017.6 983.7 -1.3---------
2019-06-27 00:00:00 24.0 18.0 19.9--- 6927.0--2wx--21018.1 984.2 -1.1- 0.06------
1.1 ms

 

Print Friendly, PDF & Email